Barhom II — 5IM534 — position and weather

sailwx.info

Track history (hours):
 
Tides and Currents Weather Stations Pressure Air Temp Water Temp Dewpoint Dewpoint Depression Visibility Wind Speed Wind Dir Waves Ship Positions

Barhom II

Last reported at 2016-Dec-08 13:34 UTC. Time now 2016-Dec-08 20:15 UTC.
Position N 43°24' E 003°42'.

Length 83 m.

Type: Cargo ship. MMSI: 677043400.

Date/timePositionNaut miles runAvg speedWind from/ knotsBaromVisibWave heightAir tempDewpointWater temp
2016-Dec-08 13:34N 43°24' E 003°42'0 0.0
2016-Dec-08 12:31N 43°24' E 003°42'204 6.8
2016-Dec-07 06:31N 40°00' E 003°37'10 9.6
2016-Dec-07 05:32N 39°51' E 003°37'1410.0
2016-Dec-07 04:09N 39°37' E 003°35'6 9.8
2016-Dec-07 03:33N 39°31' E 003°34'10 9.6
2016-Dec-07 02:33N 39°21' E 003°32'9 9.2
2016-Dec-07 01:33N 39°12' E 003°31'9 9.2
2016-Dec-07 00:33N 39°03' E 003°29'9 8.9
2016-Dec-06 23:29N 38°54' E 003°28'  
2016-Dec-03 15:33N 38°58' E 003°50'19 9.6
2016-Dec-03 13:33N 39°16' E 003°41'11 9.6
2016-Dec-03 12:25N 39°27' E 003°39'20 9.7
2016-Dec-03 10:22N 39°47' E 003°41'8 9.5
2016-Dec-03 09:33N 39°54' E 003°41'13910.7
2016-Dec-02 20:32N 42°14' E 003°42'2210.7
2016-Dec-02 18:30N 42°35' E 003°43'1110.5
2016-Dec-02 17:27N 42°46' E 003°44'3110.5
2016-Dec-02 14:32N 43°17' E 003°44'7 0.1
2016-Nov-30 11:16N 43°24' E 003°42'  
Track history (hours):
 
Tides and Currents Weather Stations Pressure Air Temp Water Temp Dewpoint Dewpoint Depression Visibility Wind Speed Wind Dir Waves Ship Positions

Barhom II

Last reported at 2016-Dec-08 13:34 UTC. Time now 2016-Dec-08 20:15 UTC.
Position N 43°24' E 003°42'.

Length 83 m.

Type: Cargo ship. MMSI: 677043400.

Date/timePositionNaut miles runAvg speedWind from/ knotsBaromVisibWave heightAir tempDewpointWater temp
2016-Dec-08 13:34N 43°24' E 003°42'0 0.0
2016-Dec-08 12:31N 43°24' E 003°42'204 6.8
2016-Dec-07 06:31N 40°00' E 003°37'10 9.6
2016-Dec-07 05:32N 39°51' E 003°37'1410.0
2016-Dec-07 04:09N 39°37' E 003°35'6 9.8
2016-Dec-07 03:33N 39°31' E 003°34'10 9.6
2016-Dec-07 02:33N 39°21' E 003°32'9 9.2
2016-Dec-07 01:33N 39°12' E 003°31'9 9.2
2016-Dec-07 00:33N 39°03' E 003°29'9 8.9
2016-Dec-06 23:29N 38°54' E 003°28'  
2016-Dec-03 15:33N 38°58' E 003°50'19 9.6
2016-Dec-03 13:33N 39°16' E 003°41'11 9.6
2016-Dec-03 12:25N 39°27' E 003°39'20 9.7
2016-Dec-03 10:22N 39°47' E 003°41'8 9.5
2016-Dec-03 09:33N 39°54' E 003°41'13910.7
2016-Dec-02 20:32N 42°14' E 003°42'2210.7
2016-Dec-02 18:30N 42°35' E 003°43'1110.5
2016-Dec-02 17:27N 42°46' E 003°44'3110.5
2016-Dec-02 14:32N 43°17' E 003°44'7 0.1
2016-Nov-30 11:16N 43°24' E 003°42'  

Dump ship's entire track history